createdAt,value
2023-03-08T00:00:16.503Z,74.60
2023-03-08T00:02:48.440Z,74.50
2023-03-08T00:05:20.481Z,74.10
2023-03-08T00:07:55.890Z,74.50
2023-03-08T00:10:27.874Z,74.10
2023-03-08T00:13:00.098Z,74.10
2023-03-08T00:15:32.149Z,73.80
2023-03-08T00:18:05.228Z,74.10
2023-03-08T00:20:37.247Z,74.00
2023-03-08T00:23:10.068Z,74.10
2023-03-08T00:25:42.029Z,74.10
2023-03-08T00:28:14.072Z,73.70
2023-03-08T00:30:46.298Z,73.90
2023-03-08T00:33:18.332Z,73.70
2023-03-08T00:36:05.500Z,73.90
2023-03-08T00:38:38.507Z,73.70
2023-03-08T00:41:11.508Z,73.60
2023-03-08T00:43:43.634Z,73.60
2023-03-08T00:46:16.620Z,73.20
2023-03-08T00:48:49.757Z,73.50
2023-03-08T00:51:22.335Z,73.30
2023-03-08T00:53:54.531Z,72.80
2023-03-08T00:56:27.688Z,73.00
2023-03-08T00:58:59.753Z,72.90
2023-03-08T01:01:33.642Z,73.20
2023-03-08T01:04:05.741Z,72.80
2023-03-08T01:06:37.853Z,72.80
2023-03-08T01:09:11.678Z,73.10
2023-03-08T01:11:44.968Z,72.90
2023-03-08T01:14:18.812Z,72.70
2023-03-08T01:16:50.760Z,72.50
2023-03-08T01:19:22.744Z,72.90
2023-03-08T01:21:54.790Z,72.70
2023-03-08T01:24:26.755Z,72.90
2023-03-08T01:27:01.154Z,73.00
2023-03-08T01:29:33.182Z,73.20
2023-03-08T01:32:06.036Z,73.30
2023-03-08T01:34:38.803Z,73.70
2023-03-08T01:37:11.149Z,73.90
2023-03-08T01:39:43.257Z,74.20
2023-03-08T01:42:15.478Z,74.30
2023-03-08T01:44:56.406Z,74.60
2023-03-08T01:47:31.542Z,74.50
2023-03-08T01:50:20.204Z,74.80
2023-03-08T01:52:55.607Z,74.70
2023-03-08T01:55:27.927Z,75.10
2023-03-08T01:58:00.088Z,75.00
2023-03-08T02:00:32.069Z,75.40
2023-03-08T02:03:12.189Z,75.40
2023-03-08T02:05:44.773Z,75.80
2023-03-08T02:08:23.444Z,75.60
2023-03-08T02:10:58.063Z,76.30
2023-03-08T02:13:30.608Z,76.30
2023-03-08T02:16:06.607Z,76.80
2023-03-08T02:18:56.918Z,76.90
2023-03-08T02:21:31.080Z,76.80
2023-03-08T02:24:07.220Z,77.00
2023-03-08T02:26:39.252Z,77.10
2023-03-08T02:29:11.995Z,77.10
2023-03-08T02:31:44.602Z,77.50
2023-03-08T02:34:16.808Z,77.50
2023-03-08T02:36:48.940Z,78.10
2023-03-08T02:39:20.998Z,78.30
2023-03-08T02:41:53.008Z,79.40
2023-03-08T02:44:25.110Z,79.40
2023-03-08T02:46:58.452Z,79.10
2023-03-08T02:49:30.657Z,79.20
2023-03-08T02:52:03.799Z,79.70
2023-03-08T02:54:35.781Z,79.90
2023-03-08T02:57:07.852Z,79.70
2023-03-08T02:59:41.926Z,79.90
2023-03-08T03:02:14.277Z,80.40
2023-03-08T03:04:46.585Z,80.40
2023-03-08T03:07:18.546Z,80.40
2023-03-08T03:09:51.247Z,80.70
2023-03-08T03:12:23.817Z,81.20
2023-03-08T03:14:55.962Z,80.80
2023-03-08T03:17:28.479Z,81.50
2023-03-08T03:20:01.145Z,81.70
2023-03-08T03:22:33.428Z,81.60
2023-03-08T03:25:06.541Z,82.50
2023-03-08T03:27:38.792Z,81.90
2023-03-08T03:32:59.251Z,82.60
2023-03-08T03:35:38.947Z,82.10
2023-03-08T03:38:12.580Z,82.40
2023-03-08T03:40:46.278Z,82.30
2023-03-08T03:43:19.347Z,82.50
2023-03-08T03:46:03.690Z,82.10
2023-03-08T03:48:37.085Z,82.70
2023-03-08T03:51:17.006Z,82.30
2023-03-08T03:53:53.332Z,83.20
2023-03-08T03:56:28.827Z,82.90
2023-03-08T03:59:05.490Z,83.10
2023-03-08T04:01:37.933Z,83.60
2023-03-08T04:04:22.363Z,83.80
2023-03-08T04:06:55.078Z,84.70
2023-03-08T04:09:30.945Z,84.90
2023-03-08T04:12:16.644Z,85.20
2023-03-08T04:14:49.737Z,85.50
2023-03-08T04:17:23.776Z,86.30
2023-03-08T04:19:58.776Z,86.70
2023-03-08T04:22:32.920Z,87.10
2023-03-08T04:25:12.276Z,87.10
2023-03-08T04:27:53.442Z,87.60
2023-03-08T04:30:26.566Z,87.70
2023-03-08T04:33:00.528Z,88.60
2023-03-08T04:35:40.625Z,89.70
2023-03-08T04:38:13.322Z,89.60
2023-03-08T04:41:13.808Z,89.50
2023-03-08T04:44:01.099Z,89.20
2023-03-08T04:46:41.793Z,89.60
2023-03-08T04:49:17.457Z,89.90
2023-03-08T04:51:54.345Z,90.00
2023-03-08T04:54:28.067Z,90.50
2023-03-08T04:57:06.447Z,90.40
2023-03-08T04:59:40.072Z,91.00
2023-03-08T05:02:12.629Z,91.90
2023-03-08T05:04:45.971Z,90.80
2023-03-08T05:07:18.386Z,90.80
2023-03-08T05:09:52.287Z,91.10
2023-03-08T05:12:24.487Z,90.80
2023-03-08T05:15:01.339Z,91.20
2023-03-08T05:17:34.052Z,91.90
2023-03-08T05:20:07.971Z,92.30
2023-03-08T05:22:57.723Z,92.70
2023-03-08T05:25:33.953Z,92.90
2023-03-08T05:28:07.993Z,93.30
2023-03-08T05:30:40.604Z,93.50
2023-03-08T05:33:12.991Z,93.50
2023-03-08T05:35:53.740Z,93.60
2023-03-08T05:38:26.978Z,94.00
2023-03-08T05:41:04.739Z,94.00
2023-03-08T05:43:37.133Z,94.60
2023-03-08T05:46:14.568Z,94.50
2023-03-08T05:48:48.075Z,94.90
2023-03-08T05:51:23.233Z,95.30
2023-03-08T05:53:55.872Z,95.00
2023-03-08T05:56:28.537Z,95.40
2023-03-08T05:59:10.725Z,95.20
2023-03-08T06:01:42.914Z,95.80
2023-03-08T06:04:25.754Z,96.30
2023-03-08T06:06:59.697Z,97.00
2023-03-08T06:09:38.882Z,96.60
2023-03-08T06:12:13.324Z,96.60
2023-03-08T06:14:46.036Z,98.30
2023-03-08T06:17:20.058Z,97.70
2023-03-08T06:19:54.886Z,97.60
2023-03-08T06:22:27.794Z,97.70
2023-03-08T06:25:00.893Z,97.70
2023-03-08T06:27:38.690Z,97.80
2023-03-08T06:30:19.105Z,97.60
2023-03-08T06:32:52.222Z,97.60
2023-03-08T06:35:25.023Z,97.50
2023-03-08T06:38:02.613Z,97.60
2023-03-08T06:40:36.252Z,97.80
2023-03-08T06:43:08.951Z,98.60
2023-03-08T06:45:41.464Z,97.50
2023-03-08T06:48:14.714Z,96.90
2023-03-08T06:50:47.416Z,97.10
2023-03-08T06:53:21.081Z,97.20
2023-03-08T06:56:12.333Z,96.50
2023-03-08T06:58:46.125Z,96.50
2023-03-08T07:01:19.033Z,96.30
2023-03-08T07:03:52.829Z,96.30
2023-03-08T07:06:25.098Z,95.80
2023-03-08T07:08:57.321Z,95.50
2023-03-08T07:11:31.110Z,95.10
2023-03-08T07:14:03.412Z,95.00
2023-03-08T07:16:35.548Z,95.40
2023-03-08T07:19:07.611Z,95.20
2023-03-08T07:21:39.668Z,94.70
2023-03-08T07:24:11.974Z,94.70
2023-03-08T07:26:44.001Z,94.70
2023-03-08T07:29:16.071Z,94.50
2023-03-08T07:31:48.088Z,94.30
2023-03-08T07:34:20.120Z,94.20
2023-03-08T07:36:52.444Z,94.20
2023-03-08T07:39:24.469Z,94.30
2023-03-08T07:41:56.568Z,94.40
2023-03-08T07:44:28.775Z,94.20
2023-03-08T07:47:00.792Z,94.20
2023-03-08T07:49:33.064Z,93.90
2023-03-08T07:52:05.393Z,93.60
2023-03-08T07:54:37.417Z,93.60
2023-03-08T07:57:15.692Z,93.70
2023-03-08T07:59:47.826Z,93.30
2023-03-08T08:02:20.708Z,93.10
2023-03-08T08:04:52.799Z,92.50
2023-03-08T08:07:24.905Z,92.50
2023-03-08T08:09:57.197Z,91.90
2023-03-08T08:12:29.199Z,91.60
2023-03-08T08:15:01.647Z,91.40
2023-03-08T08:17:33.988Z,90.90
2023-03-08T08:20:09.433Z,90.60
2023-03-08T08:22:41.512Z,90.20
2023-03-08T08:25:13.991Z,90.10
2023-03-08T08:27:46.533Z,88.30
2023-03-08T08:30:19.358Z,88.30
2023-03-08T08:32:51.408Z,87.10
2023-03-08T08:35:31.148Z,86.00
2023-03-08T08:38:09.748Z,83.10
2023-03-08T08:40:42.413Z,83.10
2023-03-08T08:43:14.510Z,82.20
2023-03-08T08:45:48.415Z,81.70
2023-03-08T08:48:20.521Z,81.90
2023-03-08T08:50:52.874Z,81.70
2023-03-08T08:53:25.340Z,81.20
2023-03-08T08:55:58.141Z,81.60
2023-03-08T08:58:30.300Z,81.60
2023-03-08T09:01:02.267Z,81.30
2023-03-08T09:03:34.524Z,81.00
2023-03-08T09:06:06.525Z,80.60
2023-03-08T09:08:38.650Z,81.60
2023-03-08T09:11:11.657Z,81.70
2023-03-08T09:13:43.722Z,81.70
2023-03-08T09:16:28.721Z,82.10
2023-03-08T09:19:03.571Z,81.50
2023-03-08T09:21:37.079Z,81.40
2023-03-08T09:24:11.490Z,81.40
2023-03-08T09:26:43.451Z,81.00
2023-03-08T09:29:15.500Z,81.00
2023-03-08T09:31:47.624Z,81.60
2023-03-08T09:34:19.672Z,81.30
2023-03-08T09:36:52.236Z,81.50
2023-03-08T09:39:24.963Z,81.40
2023-03-08T09:42:00.833Z,81.60
2023-03-08T09:44:48.868Z,81.20
2023-03-08T09:48:06.992Z,81.20
2023-03-08T09:50:49.325Z,81.30
2023-03-08T09:53:49.689Z,82.50
2023-03-08T09:56:32.366Z,80.80
2023-03-08T09:59:36.664Z,80.40
2023-03-08T10:02:26.004Z,79.50
2023-03-08T10:05:13.406Z,78.70
2023-03-08T10:07:52.689Z,78.20
2023-03-08T10:10:42.124Z,78.30
2023-03-08T10:13:33.966Z,77.40
2023-03-08T10:16:33.330Z,77.90
2023-03-08T10:19:17.938Z,75.50
2023-03-08T10:21:51.681Z,74.90
2023-03-08T10:24:31.102Z,75.80
2023-03-08T10:27:25.817Z,74.10
2023-03-08T10:30:01.799Z,74.80
2023-03-08T10:32:43.852Z,75.80
2023-03-08T10:35:17.287Z,76.10
2023-03-08T10:37:52.494Z,76.30
2023-03-08T10:40:24.735Z,76.40
2023-03-08T10:43:01.187Z,76.70
2023-03-08T10:45:33.943Z,77.00
2023-03-08T10:48:06.687Z,77.30
2023-03-08T10:50:38.719Z,76.90
2023-03-08T10:53:14.795Z,77.50
2023-03-08T10:55:49.246Z,77.50
2023-03-08T10:58:38.808Z,78.00
2023-03-08T11:01:32.454Z,78.20
2023-03-08T11:04:19.649Z,77.20
2023-03-08T11:06:51.871Z,78.50
2023-03-08T11:09:29.509Z,80.20
2023-03-08T11:12:01.524Z,83.30
2023-03-08T11:14:33.999Z,83.20
2023-03-08T11:17:17.140Z,85.50
2023-03-08T11:19:57.589Z,88.90
2023-03-08T11:22:36.270Z,88.90
2023-03-08T11:25:25.334Z,88.40
2023-03-08T11:28:35.204Z,87.30
2023-03-08T11:31:07.285Z,86.50
2023-03-08T11:34:11.115Z,86.60
2023-03-08T11:37:02.424Z,86.50
2023-03-08T11:39:42.617Z,87.40
2023-03-08T11:42:35.176Z,87.20
2023-03-08T11:45:32.820Z,89.70
2023-03-08T11:48:04.782Z,90.40
2023-03-08T11:50:49.722Z,91.20
2023-03-08T11:53:35.842Z,93.10
2023-03-08T11:56:28.959Z,93.10
2023-03-08T11:59:10.878Z,94.60
2023-03-08T12:02:13.973Z,94.30
2023-03-08T12:05:02.126Z,94.90
2023-03-08T12:07:39.840Z,95.00
2023-03-08T12:10:26.949Z,94.60
2023-03-08T12:13:38.455Z,94.50
2023-03-08T12:16:32.400Z,95.00
2023-03-08T12:19:10.872Z,93.90
2023-03-08T12:21:56.306Z,93.80
2023-03-08T12:24:48.869Z,94.00
2023-03-08T12:27:45.820Z,94.00
2023-03-08T12:30:58.722Z,94.30
2023-03-08T12:33:32.613Z,94.00
2023-03-08T12:36:17.490Z,93.80
2023-03-08T12:38:56.869Z,92.70
2023-03-08T12:41:31.860Z,93.50
2023-03-08T12:44:04.112Z,92.40
2023-03-08T12:47:02.150Z,91.70
2023-03-08T12:49:44.929Z,91.50
2023-03-08T12:52:19.897Z,91.40
2023-03-08T12:55:01.456Z,91.00
2023-03-08T12:57:42.954Z,90.90
2023-03-08T13:00:23.815Z,90.90
2023-03-08T13:03:06.693Z,90.40
2023-03-08T13:05:40.278Z,90.20
2023-03-08T13:08:15.298Z,90.30
2023-03-08T13:10:50.526Z,89.70
2023-03-08T13:13:50.261Z,88.40
2023-03-08T13:16:32.174Z,88.70
2023-03-08T13:19:16.889Z,88.70
2023-03-08T13:22:00.510Z,88.60
2023-03-08T13:24:45.066Z,87.30
2023-03-08T13:28:04.063Z,88.20
2023-03-08T13:30:38.876Z,90.50
2023-03-08T13:33:19.078Z,91.60
2023-03-08T13:36:02.418Z,91.50
2023-03-08T13:38:37.822Z,91.60
2023-03-08T13:41:10.256Z,91.00
2023-03-08T13:43:42.516Z,90.70
2023-03-08T13:46:18.678Z,89.80
2023-03-08T13:48:51.023Z,89.50
2023-03-08T13:51:26.850Z,88.20
2023-03-08T13:53:58.936Z,87.20
2023-03-08T13:56:31.150Z,87.30
2023-03-08T13:59:03.293Z,87.20
2023-03-08T14:01:46.247Z,87.60
2023-03-08T14:04:28.511Z,86.00
2023-03-08T14:07:01.471Z,86.50
2023-03-08T14:09:33.694Z,86.30
2023-03-08T14:12:07.339Z,84.10
2023-03-08T14:14:40.713Z,84.70
2023-03-08T14:17:27.280Z,83.70
2023-03-08T14:20:07.518Z,83.50
2023-03-08T14:22:40.615Z,84.00
2023-03-08T14:25:22.039Z,82.90
2023-03-08T14:27:55.138Z,83.90
2023-03-08T14:30:30.171Z,84.30
2023-03-08T14:33:15.764Z,84.30
2023-03-08T14:35:57.778Z,84.90
2023-03-08T14:38:32.504Z,84.40
2023-03-08T14:41:10.322Z,84.40
2023-03-08T14:43:50.375Z,84.60
2023-03-08T14:46:23.626Z,84.20
2023-03-08T14:49:04.950Z,82.90
2023-03-08T14:51:41.751Z,83.10
2023-03-08T14:54:31.446Z,82.80
2023-03-08T14:57:19.883Z,82.50
2023-03-08T14:59:52.765Z,81.70
2023-03-08T15:02:24.747Z,79.70
2023-03-08T15:04:56.708Z,78.40
2023-03-08T15:07:34.156Z,78.40
2023-03-08T15:10:07.602Z,78.70
2023-03-08T15:12:40.965Z,79.00
2023-03-08T15:25:29.676Z,78.80
2023-03-08T15:28:01.983Z,78.70
2023-03-08T15:30:34.525Z,79.40
2023-03-08T15:33:06.766Z,79.20
2023-03-08T15:35:39.389Z,79.50
2023-03-08T15:38:17.075Z,79.10
2023-03-08T15:40:49.093Z,78.90
2023-03-08T15:43:21.160Z,79.50
2023-03-08T15:45:53.517Z,79.20
2023-03-08T15:48:25.582Z,80.00
2023-03-08T15:50:58.527Z,80.60
2023-03-08T15:53:35.719Z,79.60
2023-03-08T15:56:08.214Z,79.70
2023-03-08T15:58:40.364Z,80.00
2023-03-08T16:01:12.530Z,79.30
2023-03-08T16:03:44.601Z,79.50
2023-03-08T16:06:17.665Z,78.70
2023-03-08T16:08:49.910Z,78.70
2023-03-08T16:11:22.854Z,78.70
2023-03-08T16:13:54.862Z,79.10
2023-03-08T16:16:44.484Z,79.70
2023-03-08T16:19:17.352Z,79.60
2023-03-08T16:21:51.729Z,79.20
2023-03-08T16:24:23.684Z,79.90
2023-03-08T16:26:56.544Z,79.90
2023-03-08T16:29:28.620Z,79.80
2023-03-08T16:32:01.160Z,79.80
2023-03-08T16:34:33.364Z,79.80
2023-03-08T16:37:05.791Z,80.00
2023-03-08T16:39:37.763Z,80.20
2023-03-08T16:42:13.605Z,80.30
2023-03-08T16:44:50.654Z,80.50
2023-03-08T16:47:24.779Z,80.50
2023-03-08T16:49:56.807Z,80.40
2023-03-08T16:52:28.920Z,80.40
2023-03-08T16:55:00.994Z,80.70
2023-03-08T16:57:33.177Z,81.00
2023-03-08T17:00:06.689Z,81.00
2023-03-08T17:02:39.182Z,81.40
2023-03-08T17:05:12.917Z,81.40
2023-03-08T17:07:47.141Z,81.30
2023-03-08T17:10:19.230Z,81.20
2023-03-08T17:12:51.390Z,81.20
2023-03-08T17:15:23.333Z,81.60
2023-03-08T17:17:56.064Z,81.90
2023-03-08T17:20:28.028Z,82.00
2023-03-08T17:23:00.285Z,81.60
2023-03-08T17:25:35.561Z,82.10
2023-03-08T17:28:07.894Z,82.10
2023-03-08T17:30:41.444Z,82.20
2023-03-08T17:33:13.653Z,82.20
2023-03-08T17:35:45.739Z,82.50
2023-03-08T17:38:17.879Z,82.60
2023-03-08T17:40:49.936Z,82.90
2023-03-08T17:43:21.924Z,83.10
2023-03-08T17:45:59.294Z,83.10
2023-03-08T17:48:31.852Z,83.50
2023-03-08T17:51:25.001Z,83.60
2023-03-08T17:54:14.707Z,83.90
2023-03-08T17:56:49.717Z,83.90
2023-03-08T17:59:21.749Z,84.20
2023-03-08T18:01:54.659Z,84.50
2023-03-08T18:04:27.315Z,85.60
2023-03-08T18:07:04.009Z,86.80
2023-03-08T18:09:38.939Z,88.30
2023-03-08T18:12:13.867Z,90.00
2023-03-08T18:18:56.440Z,90.60
2023-03-08T18:21:30.993Z,91.10
2023-03-08T18:24:05.346Z,91.20
2023-03-08T18:26:53.887Z,90.50
2023-03-08T18:29:25.924Z,90.60
2023-03-08T18:31:57.998Z,90.60
2023-03-08T18:34:30.102Z,90.10
2023-03-08T18:37:02.320Z,89.80
2023-03-08T18:39:34.323Z,89.60
2023-03-08T18:42:06.554Z,89.70
2023-03-08T18:44:38.835Z,89.10
2023-03-08T18:47:10.930Z,87.30
2023-03-08T18:49:44.058Z,87.70
2023-03-08T18:52:16.553Z,88.40
2023-03-08T18:54:49.836Z,86.10
2023-03-08T18:57:25.594Z,85.80
2023-03-08T18:59:57.780Z,85.70
2023-03-08T19:02:30.024Z,85.60
2023-03-08T19:05:02.796Z,85.20
2023-03-08T19:07:34.927Z,86.80
2023-03-08T19:10:07.519Z,87.80
2023-03-08T19:12:41.273Z,90.40
2023-03-08T19:15:15.662Z,91.40
2023-03-08T19:17:48.968Z,93.50
2023-03-08T19:20:21.092Z,96.80
2023-03-08T19:22:53.697Z,99.20
2023-03-08T19:25:28.613Z,99.90
2023-03-08T19:28:01.044Z,99.90
2023-03-08T19:30:35.705Z,99.90
2023-03-08T19:33:07.994Z,99.90
2023-03-08T19:35:40.756Z,99.90
2023-03-08T19:38:19.331Z,99.90
2023-03-08T19:43:55.467Z,99.90
2023-03-08T19:46:27.580Z,99.90
2023-03-08T19:48:59.810Z,99.90
2023-03-08T19:51:32.176Z,99.90
2023-03-08T19:54:06.135Z,99.90
2023-03-08T19:56:38.204Z,99.90
2023-03-08T19:59:11.263Z,99.90
2023-03-08T20:01:43.640Z,99.90
2023-03-08T20:04:16.481Z,99.90
2023-03-08T20:06:50.163Z,99.90
2023-03-08T20:09:22.890Z,99.90
2023-03-08T20:11:58.778Z,99.90
2023-03-08T20:14:31.383Z,99.90
2023-03-08T20:17:05.275Z,99.90
2023-03-08T20:19:37.531Z,99.90
2023-03-08T20:22:10.782Z,99.90
2023-03-08T20:24:43.230Z,99.90
2023-03-08T20:27:15.479Z,99.90
2023-03-08T20:29:47.549Z,99.90
2023-03-08T20:32:20.058Z,99.90
2023-03-08T20:34:52.273Z,99.90
2023-03-08T20:37:24.317Z,99.90
2023-03-08T20:39:58.985Z,99.90
2023-03-08T20:42:31.466Z,99.90
2023-03-08T20:45:07.031Z,99.90
2023-03-08T20:47:39.429Z,99.90
2023-03-08T20:50:11.984Z,99.90
2023-03-08T20:52:44.202Z,99.90
2023-03-08T20:55:16.634Z,99.90
2023-03-08T20:57:51.034Z,99.90
2023-03-08T21:00:25.667Z,99.90
2023-03-08T21:02:59.543Z,99.90
2023-03-08T21:05:38.459Z,99.90
2023-03-08T21:08:11.236Z,99.90
2023-03-08T21:10:43.687Z,99.90
2023-03-08T21:13:19.458Z,99.90
2023-03-08T21:15:59.954Z,99.90
2023-03-08T21:18:32.712Z,99.90
2023-03-08T21:21:07.874Z,99.90
2023-03-08T21:23:40.412Z,99.90
2023-03-08T21:26:14.203Z,99.90
2023-03-08T21:28:47.336Z,99.90
2023-03-08T21:31:20.459Z,99.90
2023-03-08T21:33:53.918Z,99.90
2023-03-08T21:36:26.844Z,99.90
2023-03-08T21:39:00.576Z,99.90
2023-03-08T21:41:33.977Z,99.90
2023-03-08T21:44:11.192Z,99.90
2023-03-08T21:47:00.024Z,99.90
2023-03-08T21:49:35.799Z,99.90
2023-03-08T21:52:08.198Z,99.90
2023-03-08T21:54:44.447Z,99.90
2023-03-08T21:57:17.329Z,99.90
2023-03-08T21:59:52.776Z,99.90
2023-03-08T22:02:26.985Z,99.90
2023-03-08T22:05:02.104Z,99.90
2023-03-08T22:07:34.990Z,99.90
2023-03-08T22:10:14.627Z,99.90
2023-03-08T22:12:48.085Z,99.90
2023-03-08T22:15:21.032Z,99.90
2023-03-08T22:17:54.127Z,99.90
2023-03-08T22:20:27.961Z,99.90
2023-03-08T22:23:01.106Z,99.90
2023-03-08T22:25:33.490Z,99.90
2023-03-08T22:28:05.877Z,99.90
2023-03-08T22:30:41.108Z,99.90
2023-03-08T22:33:13.952Z,99.90
2023-03-08T22:35:48.142Z,99.90
2023-03-08T22:38:21.170Z,99.90
2023-03-08T22:40:53.975Z,99.90
2023-03-08T22:43:27.064Z,99.90
2023-03-08T22:46:07.898Z,99.90
2023-03-08T22:48:40.478Z,99.90
2023-03-08T22:51:14.503Z,99.90
2023-03-08T22:53:47.029Z,99.90
2023-03-08T22:56:26.625Z,99.90
2023-03-08T22:59:00.029Z,99.90
2023-03-08T23:01:33.592Z,99.90
2023-03-08T23:04:07.409Z,99.90
2023-03-08T23:06:40.237Z,99.90
2023-03-08T23:09:13.785Z,99.90
2023-03-08T23:11:46.750Z,99.90
2023-03-08T23:14:19.277Z,99.90
2023-03-08T23:16:52.764Z,99.90
2023-03-08T23:19:25.286Z,99.90
2023-03-08T23:21:58.271Z,99.90
2023-03-08T23:24:31.091Z,99.90
2023-03-08T23:27:04.494Z,99.90
2023-03-08T23:29:37.591Z,99.90
2023-03-08T23:32:10.006Z,99.90
2023-03-08T23:34:43.284Z,99.90
2023-03-08T23:37:15.497Z,99.90
2023-03-08T23:39:47.723Z,99.90
2023-03-08T23:42:20.343Z,99.90
2023-03-08T23:44:54.331Z,99.90
2023-03-08T23:47:26.694Z,99.90
2023-03-08T23:49:59.066Z,99.90
2023-03-08T23:52:31.259Z,99.90
2023-03-08T23:55:04.707Z,99.90
2023-03-08T23:57:37.282Z,99.90
